createdAt,value
2023-05-19T00:00:01.333Z,98251.00
2023-05-19T00:00:11.332Z,98251.00
2023-05-19T00:00:21.338Z,98251.00
2023-05-19T00:00:31.546Z,98249.00
2023-05-19T00:00:41.362Z,98251.00
2023-05-19T00:00:51.362Z,98245.00
2023-05-19T00:01:01.498Z,98249.00
2023-05-19T00:01:11.492Z,98249.00
2023-05-19T00:01:21.616Z,98249.00
2023-05-19T00:01:31.739Z,98245.00
2023-05-19T00:01:41.759Z,98249.00
2023-05-19T00:01:51.751Z,98247.00
2023-05-19T00:02:02.166Z,98247.00
2023-05-19T00:02:12.195Z,98245.00
2023-05-19T00:02:22.296Z,98251.00
2023-05-19T00:02:32.675Z,98249.00
2023-05-19T00:02:42.705Z,98251.00
2023-05-19T00:02:52.813Z,98247.00
2023-05-19T00:03:02.875Z,98249.00
2023-05-19T00:03:12.834Z,98249.00
2023-05-19T00:03:22.931Z,98247.00
2023-05-19T00:03:33.017Z,98247.00
2023-05-19T00:03:43.355Z,98247.00
2023-05-19T00:03:53.172Z,98247.00
2023-05-19T00:04:03.191Z,98247.00
2023-05-19T00:04:13.188Z,98249.00
2023-05-19T00:04:23.237Z,98247.00
2023-05-19T00:04:33.251Z,98247.00
2023-05-19T00:04:43.258Z,98249.00
2023-05-19T00:04:53.294Z,98249.00
2023-05-19T00:05:03.295Z,98249.00
2023-05-19T00:05:13.298Z,98247.00
2023-05-19T00:05:23.711Z,98247.00
2023-05-19T00:05:33.866Z,98247.00
2023-05-19T00:05:43.798Z,98249.00
2023-05-19T00:05:53.885Z,98249.00
2023-05-19T00:06:03.928Z,98249.00
2023-05-19T00:06:14.147Z,98249.00
2023-05-19T00:06:23.982Z,98249.00
2023-05-19T00:06:33.993Z,98249.00
2023-05-19T00:06:44.110Z,98249.00
2023-05-19T00:06:54.115Z,98249.00
2023-05-19T00:07:04.374Z,98249.00
2023-05-19T00:07:14.374Z,98251.00
2023-05-19T00:07:24.385Z,98254.00
2023-05-19T00:07:34.410Z,98247.00
2023-05-19T00:07:44.411Z,98249.00
2023-05-19T00:07:54.408Z,98247.00
2023-05-19T00:08:04.420Z,98249.00
2023-05-19T00:08:14.438Z,98249.00
2023-05-19T00:08:24.436Z,98249.00
2023-05-19T00:08:34.450Z,98249.00
2023-05-19T00:08:44.454Z,98247.00
2023-05-19T00:08:54.473Z,98247.00
2023-05-19T00:09:04.474Z,98251.00
2023-05-19T00:09:14.491Z,98247.00
2023-05-19T00:09:24.497Z,98247.00
2023-05-19T00:09:34.500Z,98247.00
2023-05-19T00:09:44.521Z,98249.00
2023-05-19T00:09:54.525Z,98247.00
2023-05-19T00:10:04.541Z,98245.00
2023-05-19T00:10:14.560Z,98247.00
2023-05-19T00:10:24.556Z,98247.00
2023-05-19T00:10:34.622Z,98245.00
2023-05-19T00:10:44.625Z,98245.00
2023-05-19T00:10:54.631Z,98245.00
2023-05-19T00:11:05.007Z,98247.00
2023-05-19T00:11:15.003Z,98245.00
2023-05-19T00:11:25.009Z,98245.00
2023-05-19T00:11:35.014Z,98245.00
2023-05-19T00:11:45.148Z,98245.00
2023-05-19T00:11:55.143Z,98247.00
2023-05-19T00:12:05.148Z,98245.00
2023-05-19T00:12:15.165Z,98247.00
2023-05-19T00:12:25.180Z,98247.00
2023-05-19T00:12:35.171Z,98247.00
2023-05-19T00:12:45.433Z,98247.00
2023-05-19T00:12:55.435Z,98247.00
2023-05-19T00:13:05.443Z,98245.00
2023-05-19T00:13:15.461Z,98243.00
2023-05-19T00:13:25.487Z,98243.00
2023-05-19T00:13:35.481Z,98247.00
2023-05-19T00:13:45.483Z,98243.00
2023-05-19T00:13:55.522Z,98245.00
2023-05-19T00:14:05.521Z,98243.00
2023-05-19T00:14:15.532Z,98243.00
2023-05-19T00:14:25.921Z,98243.00
2023-05-19T00:14:35.936Z,98245.00
2023-05-19T00:14:45.944Z,98243.00
2023-05-19T00:14:55.951Z,98243.00
2023-05-19T00:15:05.958Z,98243.00
2023-05-19T00:15:15.948Z,98241.00
2023-05-19T00:15:26.079Z,98243.00
2023-05-19T00:15:36.276Z,98241.00
2023-05-19T00:15:46.164Z,98243.00
2023-05-19T00:15:56.210Z,98243.00
2023-05-19T00:16:06.514Z,98241.00
2023-05-19T00:16:16.589Z,98241.00
2023-05-19T00:16:26.634Z,98239.00
2023-05-19T00:16:36.666Z,98239.00
2023-05-19T00:16:46.796Z,98239.00
2023-05-19T00:16:56.795Z,98241.00
2023-05-19T00:17:06.918Z,98239.00
2023-05-19T00:17:16.987Z,98237.00
2023-05-19T00:17:27.050Z,98239.00
2023-05-19T00:17:37.149Z,98241.00
2023-05-19T00:17:47.310Z,98241.00
2023-05-19T00:17:57.366Z,98239.00
2023-05-19T00:18:07.385Z,98241.00
2023-05-19T00:18:17.434Z,98239.00
2023-05-19T00:18:27.437Z,98241.00
2023-05-19T00:18:37.471Z,98243.00
2023-05-19T00:18:47.566Z,98237.00
2023-05-19T00:18:57.635Z,98243.00
2023-05-19T00:19:07.659Z,98241.00
2023-05-19T00:19:17.762Z,98241.00
2023-05-19T00:19:27.760Z,98239.00
2023-05-19T00:19:37.683Z,98241.00
2023-05-19T00:19:47.686Z,98239.00
2023-05-19T00:19:57.695Z,98241.00
2023-05-19T00:20:07.834Z,98239.00
2023-05-19T00:20:17.831Z,98243.00
2023-05-19T00:20:27.831Z,98243.00
2023-05-19T00:20:38.224Z,98237.00
2023-05-19T00:20:48.222Z,98239.00
2023-05-19T00:20:58.345Z,98237.00
2023-05-19T00:21:08.608Z,98237.00
2023-05-19T00:21:18.641Z,98237.00
2023-05-19T00:21:28.664Z,98237.00
2023-05-19T00:21:38.657Z,98241.00
2023-05-19T00:21:48.662Z,98229.00
2023-05-19T00:21:58.672Z,98237.00
2023-05-19T00:22:08.668Z,98239.00
2023-05-19T00:22:18.695Z,98239.00
2023-05-19T00:22:28.685Z,98239.00
2023-05-19T00:22:38.698Z,98239.00
2023-05-19T00:22:48.709Z,98239.00
2023-05-19T00:22:58.716Z,98237.00
2023-05-19T00:23:08.736Z,98239.00
2023-05-19T00:23:18.765Z,98239.00
2023-05-19T00:23:28.776Z,98241.00
2023-05-19T00:23:38.807Z,98239.00
2023-05-19T00:23:48.816Z,98239.00
2023-05-19T00:23:58.809Z,98241.00
2023-05-19T00:24:08.836Z,98241.00
2023-05-19T00:24:18.820Z,98237.00
2023-05-19T00:24:28.841Z,98241.00
2023-05-19T00:24:38.833Z,98241.00
2023-05-19T00:24:48.849Z,98239.00
2023-05-19T00:24:58.858Z,98239.00
2023-05-19T00:25:08.872Z,98241.00
2023-05-19T00:25:18.875Z,98241.00
2023-05-19T00:25:28.873Z,98243.00
2023-05-19T00:25:38.994Z,98243.00
2023-05-19T00:25:48.998Z,98241.00
2023-05-19T00:25:59.006Z,98241.00
2023-05-19T00:26:09.004Z,98241.00
2023-05-19T00:26:19.273Z,98243.00
2023-05-19T00:26:29.255Z,98243.00
2023-05-19T00:26:39.263Z,98243.00
2023-05-19T00:26:49.262Z,98243.00
2023-05-19T00:26:59.277Z,98243.00
2023-05-19T00:27:09.273Z,98239.00
2023-05-19T00:27:19.398Z,98241.00
2023-05-19T00:27:29.406Z,98241.00
2023-05-19T00:27:39.423Z,98241.00
2023-05-19T00:27:49.438Z,98241.00
2023-05-19T00:27:59.697Z,98241.00
2023-05-19T00:28:09.690Z,98243.00
2023-05-19T00:28:19.696Z,98241.00
2023-05-19T00:28:29.707Z,98239.00
2023-05-19T00:28:39.723Z,98239.00
2023-05-19T00:28:49.723Z,98239.00
2023-05-19T00:28:59.735Z,98241.00
2023-05-19T00:29:09.745Z,98241.00
2023-05-19T00:29:19.768Z,98243.00
2023-05-19T00:29:29.778Z,98241.00
2023-05-19T00:29:39.840Z,98243.00
2023-05-19T00:29:49.846Z,98241.00
2023-05-19T00:29:59.963Z,98239.00
2023-05-19T00:30:09.980Z,98243.00
2023-05-19T00:30:19.990Z,98241.00
2023-05-19T00:30:30.200Z,98241.00
2023-05-19T00:30:40.045Z,98237.00
2023-05-19T00:30:50.303Z,98239.00
2023-05-19T00:31:00.309Z,98239.00
2023-05-19T00:31:10.310Z,98239.00
2023-05-19T00:31:20.347Z,98241.00
2023-05-19T00:31:30.417Z,98241.00
2023-05-19T00:31:40.452Z,98241.00
2023-05-19T00:31:50.543Z,98237.00
2023-05-19T00:32:00.601Z,98241.00
2023-05-19T00:32:10.690Z,98237.00
2023-05-19T00:32:20.715Z,98237.00
2023-05-19T00:32:31.021Z,98237.00
2023-05-19T00:32:41.083Z,98239.00
2023-05-19T00:32:51.181Z,98237.00
2023-05-19T00:33:01.408Z,98237.00
2023-05-19T00:33:11.475Z,98237.00
2023-05-19T00:33:21.536Z,98229.00
2023-05-19T00:33:31.541Z,98237.00
2023-05-19T00:33:41.552Z,98229.00
2023-05-19T00:33:51.549Z,98229.00
2023-05-19T00:34:01.680Z,98237.00
2023-05-19T00:34:11.727Z,98237.00
2023-05-19T00:34:21.860Z,98239.00
2023-05-19T00:34:31.864Z,98229.00
2023-05-19T00:34:42.007Z,98229.00
2023-05-19T00:34:52.019Z,98229.00
2023-05-19T00:35:02.058Z,98237.00
2023-05-19T00:35:12.051Z,98237.00
2023-05-19T00:35:22.175Z,98237.00
2023-05-19T00:35:32.173Z,98237.00
2023-05-19T00:35:42.179Z,98229.00
2023-05-19T00:35:52.187Z,98237.00
2023-05-19T00:36:02.188Z,98237.00
2023-05-19T00:36:12.205Z,98237.00
2023-05-19T00:36:22.447Z,98237.00
2023-05-19T00:36:32.454Z,98239.00
2023-05-19T00:36:42.468Z,98237.00
2023-05-19T00:36:52.453Z,98237.00
2023-05-19T00:37:02.587Z,98237.00
2023-05-19T00:37:12.588Z,98237.00
2023-05-19T00:37:22.583Z,98229.00
2023-05-19T00:37:32.600Z,98237.00
2023-05-19T00:37:42.599Z,98237.00
2023-05-19T00:37:52.609Z,98237.00
2023-05-19T00:38:02.854Z,98237.00
2023-05-19T00:38:12.866Z,98237.00
2023-05-19T00:38:22.887Z,98241.00
2023-05-19T00:38:32.882Z,98237.00
2023-05-19T00:38:43.007Z,98229.00
2023-05-19T00:38:53.007Z,98237.00
2023-05-19T00:39:03.025Z,98237.00
2023-05-19T00:39:13.035Z,98229.00
2023-05-19T00:39:23.043Z,98237.00
2023-05-19T00:39:33.050Z,98239.00
2023-05-19T00:39:43.310Z,98227.00
2023-05-19T00:39:53.308Z,98229.00
2023-05-19T00:40:03.433Z,98237.00
2023-05-19T00:40:13.694Z,98237.00
2023-05-19T00:40:23.695Z,98237.00
2023-05-19T00:40:34.012Z,98237.00
2023-05-19T00:40:43.792Z,98239.00
2023-05-19T00:40:53.805Z,98237.00
2023-05-19T00:41:03.919Z,98237.00
2023-05-19T00:41:13.921Z,98229.00
2023-05-19T00:41:24.050Z,98237.00
2023-05-19T00:41:34.054Z,98237.00
2023-05-19T00:41:44.064Z,98229.00
2023-05-19T00:41:54.193Z,98237.00
2023-05-19T00:42:04.196Z,98229.00
2023-05-19T00:42:14.205Z,98229.00
2023-05-19T00:42:24.587Z,98237.00
2023-05-19T00:42:34.585Z,98229.00
2023-05-19T00:42:44.697Z,98237.00
2023-05-19T00:42:54.955Z,98229.00
2023-05-19T00:43:04.963Z,98229.00
2023-05-19T00:43:14.966Z,98227.00
2023-05-19T00:43:24.970Z,98225.00
2023-05-19T00:43:34.981Z,98227.00
2023-05-19T00:43:45.098Z,98227.00
2023-05-19T00:43:55.101Z,98227.00
2023-05-19T00:44:05.116Z,98229.00
2023-05-19T00:44:15.125Z,98229.00
2023-05-19T00:44:25.133Z,98229.00
2023-05-19T00:44:35.397Z,98237.00
2023-05-19T00:44:45.411Z,98227.00
2023-05-19T00:44:55.414Z,98229.00
2023-05-19T00:45:05.787Z,98229.00
2023-05-19T00:45:15.786Z,98237.00
2023-05-19T00:45:25.797Z,98237.00
2023-05-19T00:45:35.789Z,98237.00
2023-05-19T00:45:45.941Z,98239.00
2023-05-19T00:45:55.925Z,98237.00
2023-05-19T00:46:05.930Z,98225.00
2023-05-19T00:46:16.082Z,98227.00
2023-05-19T00:46:26.152Z,98229.00
2023-05-19T00:46:36.223Z,98227.00
2023-05-19T00:46:46.392Z,98227.00
2023-05-19T00:46:56.459Z,98225.00
2023-05-19T00:47:06.593Z,98229.00
2023-05-19T00:47:16.790Z,98237.00
2023-05-19T00:47:26.930Z,98229.00
2023-05-19T00:47:36.970Z,98227.00
2023-05-19T00:47:47.247Z,98227.00
2023-05-19T00:47:57.333Z,98229.00
2023-05-19T00:48:07.342Z,98227.00
2023-05-19T00:48:17.347Z,98225.00
2023-05-19T00:48:27.468Z,98229.00
2023-05-19T00:48:37.488Z,98229.00
2023-05-19T00:48:47.481Z,98225.00
2023-05-19T00:48:57.497Z,98225.00
2023-05-19T00:49:07.506Z,98225.00
2023-05-19T00:49:17.513Z,98227.00
2023-05-19T00:49:27.760Z,98225.00
2023-05-19T00:49:37.765Z,98225.00
2023-05-19T00:49:47.891Z,98221.00
2023-05-19T00:49:58.145Z,98223.00
2023-05-19T00:50:08.263Z,98223.00
2023-05-19T00:50:18.268Z,98225.00
2023-05-19T00:50:28.528Z,98221.00
2023-05-19T00:50:38.525Z,98225.00
2023-05-19T00:50:48.677Z,98225.00
2023-05-19T00:50:58.925Z,98223.00
2023-05-19T00:51:08.924Z,98221.00
2023-05-19T00:51:18.941Z,98223.00
2023-05-19T00:51:28.947Z,98223.00
2023-05-19T00:51:38.962Z,98223.00
2023-05-19T00:51:48.965Z,98223.00
2023-05-19T00:51:58.963Z,98225.00
2023-05-19T00:52:08.985Z,98225.00
2023-05-19T00:52:18.985Z,98221.00
2023-05-19T00:52:28.997Z,98223.00
2023-05-19T00:52:39.019Z,98223.00
2023-05-19T00:52:49.024Z,98223.00
2023-05-19T00:52:59.032Z,98223.00
2023-05-19T00:53:09.041Z,98225.00
2023-05-19T00:53:19.061Z,98225.00
2023-05-19T00:53:29.051Z,98227.00
2023-05-19T00:53:39.061Z,98227.00
2023-05-19T00:53:49.218Z,98223.00
2023-05-19T00:53:59.169Z,98223.00
2023-05-19T00:54:09.164Z,98225.00
2023-05-19T00:54:19.164Z,98227.00
2023-05-19T00:54:29.416Z,98227.00
2023-05-19T00:54:39.427Z,98223.00
2023-05-19T00:54:49.447Z,98229.00
2023-05-19T00:54:59.450Z,98227.00
2023-05-19T00:55:09.474Z,98225.00
2023-05-19T00:55:19.480Z,98223.00
2023-05-19T00:55:29.518Z,98223.00
2023-05-19T00:55:39.521Z,98227.00
2023-05-19T00:55:49.528Z,98223.00
2023-05-19T00:55:59.536Z,98223.00
2023-05-19T00:56:09.912Z,98221.00
2023-05-19T00:56:19.911Z,98223.00
2023-05-19T00:56:30.032Z,98223.00
2023-05-19T00:56:40.305Z,98223.00
2023-05-19T00:56:50.314Z,98223.00
2023-05-19T00:57:00.314Z,98223.00
2023-05-19T00:57:10.702Z,98221.00
2023-05-19T00:57:20.713Z,98221.00
2023-05-19T00:57:30.727Z,98221.00
2023-05-19T00:57:40.737Z,98221.00
2023-05-19T00:57:50.746Z,98223.00
2023-05-19T00:58:00.763Z,98223.00
2023-05-19T00:58:10.774Z,98225.00
2023-05-19T00:58:20.773Z,98223.00
2023-05-19T00:58:30.827Z,98223.00
2023-05-19T00:58:40.815Z,98221.00
2023-05-19T00:58:51.203Z,98223.00
2023-05-19T00:59:01.207Z,98223.00
2023-05-19T00:59:11.200Z,98223.00
2023-05-19T00:59:21.202Z,98223.00
2023-05-19T00:59:31.335Z,98225.00
2023-05-19T00:59:41.349Z,98223.00
2023-05-19T00:59:51.350Z,98225.00
2023-05-19T01:00:01.368Z,98225.00
2023-05-19T01:00:11.350Z,98225.00
2023-05-19T01:00:21.350Z,98221.00
2023-05-19T01:00:31.792Z,98221.00
2023-05-19T01:00:41.727Z,98223.00
2023-05-19T01:00:51.822Z,98221.00
2023-05-19T01:01:01.868Z,98221.00
2023-05-19T01:01:11.906Z,98223.00
2023-05-19T01:01:22.091Z,98225.00
2023-05-19T01:01:32.108Z,98219.00
2023-05-19T01:01:42.043Z,98219.00
2023-05-19T01:01:52.045Z,98217.00
2023-05-19T01:02:02.052Z,98221.00
2023-05-19T01:02:12.064Z,98219.00
2023-05-19T01:02:22.130Z,98219.00
2023-05-19T01:02:32.210Z,98219.00
2023-05-19T01:02:42.364Z,98219.00
2023-05-19T01:02:52.316Z,98221.00
2023-05-19T01:03:02.541Z,98223.00
2023-05-19T01:03:12.538Z,98217.00
2023-05-19T01:03:22.737Z,98217.00
2023-05-19T01:03:32.806Z,98217.00
2023-05-19T01:03:42.909Z,98219.00
2023-05-19T01:03:53.221Z,98221.00
2023-05-19T01:04:03.228Z,98219.00
2023-05-19T01:04:13.262Z,98219.00
2023-05-19T01:04:23.518Z,98219.00
2023-05-19T01:04:33.535Z,98219.00
2023-05-19T01:04:43.548Z,98221.00
2023-05-19T01:04:53.600Z,98217.00
2023-05-19T01:05:03.591Z,98215.00
2023-05-19T01:05:13.596Z,98217.00
2023-05-19T01:05:23.594Z,98215.00
2023-05-19T01:05:33.600Z,98215.00
2023-05-19T01:05:43.721Z,98215.00
2023-05-19T01:05:53.833Z,98217.00
2023-05-19T01:06:03.987Z,98219.00
2023-05-19T01:06:13.993Z,98217.00
2023-05-19T01:06:24.010Z,98219.00
2023-05-19T01:06:34.023Z,98217.00
2023-05-19T01:06:44.025Z,98219.00
2023-05-19T01:06:54.024Z,98219.00
2023-05-19T01:07:04.032Z,98215.00
2023-05-19T01:07:14.028Z,98215.00
2023-05-19T01:07:24.156Z,98217.00
2023-05-19T01:07:34.180Z,98215.00
2023-05-19T01:07:44.488Z,98219.00
2023-05-19T01:07:54.485Z,98215.00
2023-05-19T01:08:04.508Z,98215.00
2023-05-19T01:08:14.505Z,98215.00
2023-05-19T01:08:24.627Z,98215.00
2023-05-19T01:08:34.625Z,98215.00
2023-05-19T01:08:44.641Z,98217.00
2023-05-19T01:08:54.648Z,98219.00
2023-05-19T01:09:04.666Z,98215.00
2023-05-19T01:09:14.662Z,98215.00
2023-05-19T01:09:24.921Z,98217.00
2023-05-19T01:09:34.946Z,98217.00
2023-05-19T01:09:44.951Z,98217.00
2023-05-19T01:09:54.953Z,98217.00
2023-05-19T01:10:05.077Z,98221.00
2023-05-19T01:10:15.084Z,98219.00
2023-05-19T01:10:25.209Z,98219.00
2023-05-19T01:10:35.223Z,98219.00
2023-05-19T01:10:45.336Z,98219.00
2023-05-19T01:10:55.340Z,98221.00
2023-05-19T01:11:05.480Z,98217.00
2023-05-19T01:11:15.472Z,98217.00
2023-05-19T01:11:25.602Z,98217.00
2023-05-19T01:11:35.741Z,98215.00
2023-05-19T01:11:45.870Z,98217.00
2023-05-19T01:11:55.872Z,98217.00
2023-05-19T01:12:06.133Z,98217.00
2023-05-19T01:12:16.150Z,98215.00
2023-05-19T01:12:26.141Z,98217.00
2023-05-19T01:12:36.163Z,98217.00
2023-05-19T01:12:46.147Z,98215.00
2023-05-19T01:12:56.159Z,98215.00
2023-05-19T01:13:06.160Z,98217.00
2023-05-19T01:13:16.175Z,98211.00
2023-05-19T01:13:26.184Z,98215.00
2023-05-19T01:13:36.314Z,98215.00
2023-05-19T01:13:46.241Z,98213.00
2023-05-19T01:13:56.244Z,98213.00
2023-05-19T01:14:06.248Z,98213.00
2023-05-19T01:14:16.255Z,98213.00
2023-05-19T01:14:26.292Z,98213.00
2023-05-19T01:14:36.276Z,98213.00
2023-05-19T01:14:46.299Z,98213.00
2023-05-19T01:14:56.310Z,98213.00
2023-05-19T01:15:06.310Z,98213.00
2023-05-19T01:15:16.310Z,98213.00
2023-05-19T01:15:26.437Z,98215.00
2023-05-19T01:15:36.442Z,98213.00
2023-05-19T01:15:46.451Z,98215.00
2023-05-19T01:15:56.554Z,98211.00
2023-05-19T01:16:06.928Z,98211.00
2023-05-19T01:16:16.886Z,98213.00
2023-05-19T01:16:26.944Z,98213.00
2023-05-19T01:16:37.029Z,98213.00
2023-05-19T01:16:47.117Z,98213.00
2023-05-19T01:16:57.204Z,98211.00
2023-05-19T01:17:07.159Z,98209.00
2023-05-19T01:17:17.165Z,98211.00
2023-05-19T01:17:27.220Z,98211.00
2023-05-19T01:17:37.322Z,98215.00
2023-05-19T01:17:47.262Z,98211.00
2023-05-19T01:17:57.288Z,98209.00
2023-05-19T01:18:07.376Z,98211.00
2023-05-19T01:18:17.366Z,98211.00
2023-05-19T01:18:27.364Z,98211.00
2023-05-19T01:18:37.382Z,98209.00
2023-05-19T01:18:47.438Z,98209.00
2023-05-19T01:18:57.757Z,98209.00
2023-05-19T01:19:07.820Z,98209.00
2023-05-19T01:19:17.934Z,98207.00
2023-05-19T01:19:27.951Z,98207.00
2023-05-19T01:19:37.963Z,98211.00
2023-05-19T01:19:48.088Z,98211.00
2023-05-19T01:19:58.087Z,98209.00
2023-05-19T01:20:08.127Z,98207.00
2023-05-19T01:20:18.139Z,98209.00
2023-05-19T01:20:28.277Z,98209.00
2023-05-19T01:20:38.448Z,98209.00
2023-05-19T01:20:48.452Z,98209.00
2023-05-19T01:20:58.463Z,98207.00
2023-05-19T01:21:08.842Z,98209.00
2023-05-19T01:21:18.840Z,98209.00
2023-05-19T01:21:28.840Z,98209.00
2023-05-19T01:21:38.859Z,98209.00
2023-05-19T01:21:48.860Z,98207.00
2023-05-19T01:21:58.863Z,98211.00
2023-05-19T01:22:08.872Z,98211.00
2023-05-19T01:22:18.866Z,98207.00
2023-05-19T01:22:28.867Z,98209.00
2023-05-19T01:22:38.882Z,98209.00
2023-05-19T01:22:48.875Z,98209.00
2023-05-19T01:22:58.881Z,98209.00
2023-05-19T01:23:09.017Z,98209.00
2023-05-19T01:23:19.024Z,98209.00
2023-05-19T01:23:29.026Z,98209.00
2023-05-19T01:23:39.037Z,98211.00
2023-05-19T01:23:49.030Z,98211.00
2023-05-19T01:23:59.290Z,98211.00
2023-05-19T01:24:09.420Z,98211.00
2023-05-19T01:24:19.424Z,98211.00
2023-05-19T01:24:29.689Z,98209.00
2023-05-19T01:24:39.698Z,98211.00
2023-05-19T01:24:49.692Z,98211.00
2023-05-19T01:24:59.700Z,98205.00
2023-05-19T01:25:09.704Z,98205.00
2023-05-19T01:25:19.702Z,98213.00
2023-05-19T01:25:29.713Z,98207.00
2023-05-19T01:25:39.720Z,98207.00
2023-05-19T01:25:49.726Z,98211.00
2023-05-19T01:25:59.745Z,98205.00
2023-05-19T01:26:09.779Z,98205.00
2023-05-19T01:26:19.772Z,98205.00
2023-05-19T01:26:29.908Z,98205.00
2023-05-19T01:26:39.916Z,98207.00
2023-05-19T01:26:49.924Z,98205.00
2023-05-19T01:26:59.933Z,98205.00
2023-05-19T01:27:09.943Z,98205.00
2023-05-19T01:27:20.198Z,98205.00
2023-05-19T01:27:30.322Z,98207.00
2023-05-19T01:27:40.350Z,98207.00
2023-05-19T01:27:50.604Z,98207.00
2023-05-19T01:28:00.608Z,98207.00
2023-05-19T01:28:10.613Z,98205.00
2023-05-19T01:28:20.642Z,98205.00
2023-05-19T01:28:30.641Z,98205.00
2023-05-19T01:28:40.662Z,98205.00
2023-05-19T01:28:50.669Z,98205.00
2023-05-19T01:29:00.658Z,98205.00
2023-05-19T01:29:10.668Z,98205.00
2023-05-19T01:29:20.708Z,98205.00
2023-05-19T01:29:30.710Z,98205.00
2023-05-19T01:29:40.715Z,98205.00
2023-05-19T01:29:50.716Z,98207.00
2023-05-19T01:30:00.723Z,98205.00
2023-05-19T01:30:10.753Z,98207.00
2023-05-19T01:30:20.731Z,98205.00
2023-05-19T01:30:31.033Z,98203.00
2023-05-19T01:30:41.091Z,98203.00
2023-05-19T01:30:51.211Z,98203.00
2023-05-19T01:31:01.261Z,98203.00
2023-05-19T01:31:11.507Z,98203.00
2023-05-19T01:31:21.527Z,98203.00
2023-05-19T01:31:31.563Z,98203.00
2023-05-19T01:31:41.625Z,98203.00
2023-05-19T01:31:51.716Z,98205.00
2023-05-19T01:32:01.735Z,98203.00
2023-05-19T01:32:11.921Z,98203.00
2023-05-19T01:32:21.841Z,98203.00
2023-05-19T01:32:31.849Z,98201.00
2023-05-19T01:32:41.968Z,98203.00
2023-05-19T01:32:52.328Z,98203.00
2023-05-19T01:33:02.403Z,98201.00
2023-05-19T01:33:12.445Z,98203.00
2023-05-19T01:33:22.704Z,98203.00
2023-05-19T01:33:32.709Z,98203.00
2023-05-19T01:33:42.726Z,98203.00
2023-05-19T01:33:52.738Z,98203.00
2023-05-19T01:34:02.749Z,98199.00
2023-05-19T01:34:12.868Z,98199.00
2023-05-19T01:34:22.877Z,98201.00
2023-05-19T01:34:32.902Z,98201.00
2023-05-19T01:34:42.896Z,98201.00
2023-05-19T01:34:53.017Z,98201.00
2023-05-19T01:35:03.148Z,98201.00
2023-05-19T01:35:13.155Z,98203.00
2023-05-19T01:35:23.154Z,98201.00
2023-05-19T01:35:33.155Z,98203.00
2023-05-19T01:35:43.169Z,98201.00
2023-05-19T01:35:53.299Z,98203.00
2023-05-19T01:36:03.294Z,98203.00
2023-05-19T01:36:13.418Z,98201.00
2023-05-19T01:36:23.417Z,98201.00
2023-05-19T01:36:33.540Z,98201.00
2023-05-19T01:36:43.548Z,98197.00
2023-05-19T01:36:53.548Z,98201.00
2023-05-19T01:37:03.558Z,98201.00
2023-05-19T01:37:13.557Z,98197.00
2023-05-19T01:37:23.563Z,98199.00
2023-05-19T01:37:33.675Z,98201.00
2023-05-19T01:37:43.703Z,98197.00
2023-05-19T01:37:53.698Z,98197.00
2023-05-19T01:38:03.706Z,98199.00
2023-05-19T01:38:13.833Z,98199.00
2023-05-19T01:38:23.971Z,98197.00
2023-05-19T01:38:33.973Z,98199.00
2023-05-19T01:38:43.979Z,98197.00
2023-05-19T01:38:54.005Z,98197.00
2023-05-19T01:39:04.015Z,98197.00
2023-05-19T01:39:14.142Z,98199.00
2023-05-19T01:39:24.148Z,98199.00
2023-05-19T01:39:34.159Z,98199.00
2023-05-19T01:39:44.177Z,98199.00
2023-05-19T01:39:54.180Z,98197.00
2023-05-19T01:40:04.436Z,98197.00
2023-05-19T01:40:14.561Z,98195.00
2023-05-19T01:40:24.566Z,98199.00
2023-05-19T01:40:34.913Z,98199.00
2023-05-19T01:40:44.927Z,98199.00
2023-05-19T01:40:54.922Z,98199.00
2023-05-19T01:41:05.179Z,98199.00
2023-05-19T01:41:15.297Z,98199.00
2023-05-19T01:41:25.302Z,98199.00
2023-05-19T01:41:35.558Z,98199.00
2023-05-19T01:41:45.554Z,98197.00
2023-05-19T01:41:55.560Z,98195.00
2023-05-19T01:42:05.580Z,98197.00
2023-05-19T01:42:15.588Z,98197.00
2023-05-19T01:42:25.602Z,98199.00
2023-05-19T01:42:35.604Z,98197.00
2023-05-19T01:42:45.621Z,98197.00
2023-05-19T01:42:57.414Z,98199.00
2023-05-19T01:43:05.731Z,98197.00
2023-05-19T01:43:15.750Z,98199.00
2023-05-19T01:43:25.764Z,98197.00
2023-05-19T01:43:35.759Z,98199.00
2023-05-19T01:43:45.775Z,98197.00
2023-05-19T01:43:56.029Z,98201.00
2023-05-19T01:44:06.151Z,98197.00
2023-05-19T01:44:16.155Z,98197.00
2023-05-19T01:44:26.416Z,98197.00
2023-05-19T01:44:36.423Z,98197.00
2023-05-19T01:44:46.431Z,98199.00
2023-05-19T01:44:56.433Z,98197.00
2023-05-19T01:45:06.475Z,98197.00
2023-05-19T01:45:16.466Z,98199.00
2023-05-19T01:45:26.467Z,98197.00
2023-05-19T01:45:36.498Z,98197.00
2023-05-19T01:45:46.517Z,98197.00
2023-05-19T01:45:56.551Z,98201.00
2023-05-19T01:46:06.626Z,98197.00
2023-05-19T01:46:16.666Z,98197.00
2023-05-19T01:46:26.755Z,98199.00
2023-05-19T01:46:36.734Z,98199.00
2023-05-19T01:46:46.737Z,98199.00
2023-05-19T01:46:56.738Z,98199.00
2023-05-19T01:47:06.742Z,98201.00
2023-05-19T01:47:16.755Z,98201.00
2023-05-19T01:47:26.772Z,98199.00
2023-05-19T01:47:36.768Z,98201.00
2023-05-19T01:47:46.772Z,98199.00
2023-05-19T01:47:56.799Z,98199.00
2023-05-19T01:48:09.994Z,98201.00
2023-05-19T01:48:16.891Z,98201.00
2023-05-19T01:48:27.000Z,98199.00
2023-05-19T01:48:36.997Z,98201.00
2023-05-19T01:48:47.115Z,98199.00
2023-05-19T01:48:57.123Z,98199.00
2023-05-19T01:49:07.234Z,98199.00
2023-05-19T01:49:17.250Z,98201.00
2023-05-19T01:49:27.366Z,98199.00
2023-05-19T01:49:37.370Z,98201.00
2023-05-19T01:49:47.484Z,98201.00
2023-05-19T01:49:57.738Z,98199.00
2023-05-19T01:50:07.878Z,98201.00
2023-05-19T01:50:17.884Z,98201.00
2023-05-19T01:50:28.137Z,98201.00
2023-05-19T01:50:38.136Z,98201.00
2023-05-19T01:50:48.301Z,98201.00
2023-05-19T01:50:58.541Z,98201.00
2023-05-19T01:51:08.654Z,98201.00
2023-05-19T01:51:18.662Z,98201.00
2023-05-19T01:51:28.917Z,98199.00
2023-05-19T01:51:38.904Z,98199.00
2023-05-19T01:51:49.023Z,98197.00
2023-05-19T01:51:59.277Z,98197.00
2023-05-19T01:52:09.409Z,98199.00
2023-05-19T01:52:19.406Z,98199.00
2023-05-19T01:52:29.663Z,98199.00
2023-05-19T01:52:39.670Z,98199.00
2023-05-19T01:52:49.781Z,98197.00
2023-05-19T01:53:00.041Z,98197.00
2023-05-19T01:53:10.047Z,98199.00
2023-05-19T01:53:20.060Z,98199.00
2023-05-19T01:53:30.069Z,98199.00
2023-05-19T01:53:40.089Z,98201.00
2023-05-19T01:53:50.145Z,98201.00
2023-05-19T01:54:00.172Z,98197.00
2023-05-19T01:54:10.155Z,98201.00
2023-05-19T01:54:20.152Z,98199.00
2023-05-19T01:54:30.278Z,98201.00
2023-05-19T01:54:40.540Z,98197.00
2023-05-19T01:54:50.671Z,98197.00
2023-05-19T01:55:00.693Z,98199.00
2023-05-19T01:55:10.967Z,98199.00
2023-05-19T01:55:20.985Z,98201.00
2023-05-19T01:55:30.993Z,98201.00
2023-05-19T01:55:40.998Z,98199.00
2023-05-19T01:55:51.002Z,98201.00
2023-05-19T01:56:01.023Z,98201.00
2023-05-19T01:56:11.011Z,98199.00
2023-05-19T01:56:21.010Z,98201.00
2023-05-19T01:56:31.144Z,98201.00
2023-05-19T01:56:41.160Z,98201.00
2023-05-19T01:56:51.408Z,98201.00
2023-05-19T01:57:01.418Z,98201.00
2023-05-19T01:57:11.534Z,98201.00
2023-05-19T01:57:21.796Z,98203.00
2023-05-19T01:57:31.802Z,98201.00
2023-05-19T01:57:41.812Z,98201.00
2023-05-19T01:57:52.188Z,98203.00
2023-05-19T01:58:02.198Z,98203.00